Time;durP1;ratioP1;P1;durP2;ratioP2;P2;SDS_P1;SDS_P2;PMS_P1;PMS_P2;Temp;Humidity;BMP_temperature;BMP_pressure;BME280_temperature;BME280_humidity;BME280_pressure;Samples;Min_cycle;Max_cycle;Signal;HPM_P1;HPM_P2
2024/01/01 00:01:53;;;;;;;;;;;12.40;52.00;;;12.59;54.91;99227.75;5073471;28;20368;-35
2024/01/01 00:04:21;;;;;;;;;;;12.40;51.80;;;12.63;54.94;99229.84;5073434;28;19925;-35
2024/01/01 00:06:50;;;;;;;;;;;12.40;51.80;;;12.62;54.32;99228.06;5073572;28;20358;-36
2024/01/01 00:09:18;;;;;;;;;;;12.50;51.90;;;12.65;55.12;99232.50;5073153;28;20355;-36
2024/01/01 00:11:46;;;;;;;;;;;12.50;51.80;;;12.65;54.94;99228.34;5073239;28;19966;-36
2024/01/01 00:14:14;;;;;;;;;;;12.50;51.80;;;12.67;54.84;99236.06;5073427;28;19925;-36
2024/01/01 00:16:42;;;;;;;;;;;12.50;51.80;;;12.68;54.60;99242.84;5073195;28;19932;-36
2024/01/01 00:19:10;;;;;;;;;;;12.50;51.90;;;12.69;55.37;99235.47;5072986;28;19970;-37
2024/01/01 00:21:38;;;;;;;;;;;12.50;51.80;;;12.71;54.25;99243.19;5074054;28;20040;-35
2024/01/01 00:24:07;;;;;;;;;;;12.50;51.80;;;12.73;54.72;99242.56;5072305;28;19975;-36
2024/01/01 00:26:35;;;;;;;;;;;12.50;51.80;;;12.48;54.86;99203.19;5072433;28;20299;-36
2024/01/01 00:29:03;;;;;;;;;;;12.50;52.30;;;12.75;54.82;99241.09;5077278;28;20105;-36
2024/01/01 00:31:32;;;;;;;;;;;12.50;51.70;;;12.73;54.72;99231.63;5087771;28;19928;-36
2024/01/01 00:34:00;;;;;;;;;;;12.60;51.70;;;12.77;54.68;99244.63;5089748;28;20008;-36
2024/01/01 00:36:28;;;;;;;;;;;12.60;51.70;;;12.77;54.57;99242.13;5075574;28;20375;-36
2024/01/01 00:38:56;;;;;;;;;;;12.60;51.70;;;12.77;54.50;99252.19;5071826;28;19932;-36
2024/01/01 00:41:25;;;;;;;;;;;12.60;51.60;;;12.75;54.26;99253.69;5072167;28;19924;-36
2024/01/01 00:43:53;;;;;;;;;;;12.60;51.60;;;12.76;54.33;99247.91;5072399;28;19924;-36
2024/01/01 00:46:21;;;;;;;;;;;12.60;51.60;;;12.75;54.88;99251.16;5073067;28;20347;-36
2024/01/01 00:48:50;;;;;;;;;;;12.60;51.70;;;12.74;54.20;99253.50;5063756;28;20332;-36
2024/01/01 00:51:18;;;;;;;;;;;12.60;51.60;;;12.71;54.43;99246.56;5072967;28;19924;-35
2024/01/01 00:53:46;;;;;;;;;;;12.60;51.70;;;12.69;54.72;99240.50;5072738;28;19924;-36
2024/01/01 00:56:14;;;;;;;;;;;12.60;51.70;;;12.66;54.73;99247.72;5072832;28;19934;-36
2024/01/01 00:58:44;;;;;;;;;;;12.50;51.70;;;12.66;54.73;99240.19;5072234;28;19970;-36
2024/01/01 01:01:12;;;;;;;;;;;12.50;51.70;;;12.64;54.64;99236.66;5072883;28;19982;-37
2024/01/01 01:03:40;;;;;;;;;;;12.50;52.30;;;12.61;54.62;99236.34;5072674;28;20014;-36
2024/01/01 01:06:07;;;;;;;;;;;12.50;51.80;;;12.58;54.98;99237.69;5072770;28;19924;-35
2024/01/01 01:08:47;;;;;;;;;;;12.50;51.80;;;12.59;54.70;99239.41;5071939;28;19929;-35
2024/01/01 01:11:15;;;;;;;;;;;12.40;51.80;;;12.56;55.03;99240.03;5072688;28;20391;-35
2024/01/01 01:13:44;;;;;;;;;;;12.40;51.90;;;12.55;54.82;99240.75;5072612;28;19986;-35
2024/01/01 01:16:12;;;;;;;;;;;12.40;51.90;;;12.52;55.08;99235.41;5072595;28;19978;-35
2024/01/01 01:18:40;;;;;;;;;;;12.40;51.90;;;12.52;54.77;99244.59;5072218;28;19978;-35
2024/01/01 01:21:09;;;;;;;;;;;12.40;52.50;;;12.49;55.20;99241.03;5072551;28;20019;-35
2024/01/01 01:23:37;;;;;;;;;;;12.40;52.00;;;12.51;55.02;99242.81;5072148;28;19970;-35
2024/01/01 01:26:05;;;;;;;;;;;12.30;51.80;;;12.48;54.74;99245.91;5072239;28;20447;-35
2024/01/01 01:28:32;;;;;;;;;;;12.30;51.80;;;12.47;54.75;99241.59;5071658;28;19924;-35
2024/01/01 01:31:03;;;;;;;;;;;12.30;51.80;;;12.46;54.59;99244.84;5072401;28;19925;-35
2024/01/01 01:33:31;;;;;;;;;;;12.30;51.90;;;12.47;54.73;99249.16;5072290;28;20019;-35
2024/01/01 01:36:00;;;;;;;;;;;12.30;51.80;;;12.48;54.85;99248.41;5072421;28;19959;-35
2024/01/01 01:38:29;;;;;;;;;;;12.30;51.80;;;12.47;55.13;99251.66;5071745;28;19924;-35
2024/01/01 01:40:58;;;;;;;;;;;12.30;51.80;;;12.48;54.74;99259.34;5072337;28;19968;-34
2024/01/01 01:43:26;;;;;;;;;;;12.30;51.80;;;12.49;54.26;99256.13;5064229;28;19929;-34
2024/01/01 01:45:54;;;;;;;;;;;12.30;51.70;;;12.51;54.92;99257.91;5072151;28;20291;-35
2024/01/01 01:48:23;;;;;;;;;;;12.30;51.70;;;12.51;54.66;99251.25;5071591;28;20392;-35
2024/01/01 01:50:51;;;;;;;;;;;12.30;51.70;;;12.53;54.50;99257.28;5072257;28;19924;-34
2024/01/01 01:53:23;;;;;;;;;;;12.40;51.80;;;12.53;54.66;99257.28;5072346;28;19943;-35
2024/01/01 01:55:52;;;;;;;;;;;12.40;51.70;;;12.56;54.33;99237.50;5071938;28;19925;-35
2024/01/01 01:58:20;;;;;;;;;;;12.40;51.70;;;12.59;54.18;99247.84;5071426;28;19924;-34
2024/01/01 02:00:48;;;;;;;;;;;12.40;51.70;;;12.59;54.87;99242.81;5071894;28;19994;-36
2024/01/01 02:03:16;;;;;;;;;;;12.40;51.60;;;12.60;54.23;99239.59;5072149;28;19932;-35
2024/01/01 02:05:45;;;;;;;;;;;12.40;51.60;;;12.36;55.17;99184.41;5072345;28;19932;-35
2024/01/01 02:08:13;;;;;;;;;;;12.50;52.30;;;12.65;54.33;99238.41;5071815;28;19928;-35
2024/01/01 02:10:42;;;;;;;;;;;12.50;51.60;;;12.68;54.34;99227.78;5072004;28;19977;-35
2024/01/01 02:13:22;;;;;;;;;;;12.50;51.60;;;12.68;54.69;99232.81;5071774;28;19997;-36
2024/01/01 02:15:50;;;;;;;;;;;12.50;51.60;;;12.69;54.61;99238.00;5072401;28;19976;-35
2024/01/01 02:18:17;;;;;;;;;;;12.50;51.60;;;12.73;54.59;99226.59;5071261;28;19960;-35
2024/01/01 02:20:47;;;;;;;;;;;12.50;51.60;;;12.79;54.46;99227.22;5071783;28;20011;-35
2024/01/01 02:23:17;;;;;;;;;;;12.50;51.60;;;12.80;53.97;99224.84;5071761;28;20307;-35
2024/01/01 02:25:45;;;;;;;;;;;12.60;51.50;;;12.84;54.41;99216.84;5071546;28;20418;-35
2024/01/01 02:28:14;;;;;;;;;;;12.60;51.50;;;12.83;53.70;99220.13;5071371;28;19994;-35
2024/01/01 02:30:41;;;;;;;;;;;12.60;51.40;;;12.84;53.76;99226.91;5071507;28;20011;-35
2024/01/01 02:33:10;;;;;;;;;;;12.70;51.30;;;12.85;53.43;99232.84;5071907;28;19924;-35
2024/01/01 02:35:38;;;;;;;;;;;12.70;51.30;;;12.84;53.52;99226.91;5082488;28;19955;-35
2024/01/01 02:38:07;;;;;;;;;;;12.70;51.20;;;12.84;54.15;99231.94;5083192;28;20327;-35
2024/01/01 02:40:38;;;;;;;;;;;12.70;51.20;;;12.84;53.54;99216.84;5089980;28;19931;-35
2024/01/01 02:43:06;;;;;;;;;;;12.60;51.20;;;12.82;53.74;99233.44;5087209;28;20396;-35
2024/01/01 02:45:34;;;;;;;;;;;12.70;51.30;;;12.81;53.76;99221.59;5071666;28;19944;-35
2024/01/01 02:48:02;;;;;;;;;;;12.60;51.20;;;12.77;53.77;99214.47;5073230;28;19928;-35
2024/01/01 02:50:30;;;;;;;;;;;12.60;51.30;;;12.76;54.02;99212.72;5074791;28;19924;-35
2024/01/01 02:52:58;;;;;;;;;;;12.60;51.30;;;12.74;54.67;99216.72;5075356;28;19931;-35
2024/01/01 02:55:26;;;;;;;;;;;12.60;51.40;;;12.71;54.78;99208.84;5075207;28;19925;-36
2024/01/01 02:57:55;;;;;;;;;;;12.60;51.40;;;12.68;54.20;99213.59;5074398;28;20018;-35
2024/01/01 03:00:23;;;;;;;;;;;12.50;51.40;;;12.66;54.20;99220.09;5075108;28;19983;-35
2024/01/01 03:02:51;;;;;;;;;;;12.50;51.40;;;12.67;54.23;99218.47;5074874;28;19939;-35
2024/01/01 03:05:22;;;;;;;;;;;12.50;51.40;;;12.62;54.39;99207.97;5074764;28;19979;-36
2024/01/01 03:07:50;;;;;;;;;;;12.50;51.40;;;12.59;54.96;99207.66;5073593;28;20376;-35
2024/01/01 03:10:18;;;;;;;;;;;12.40;51.30;;;12.58;54.83;99215.94;5074902;28;19990;-35
2024/01/01 03:12:46;;;;;;;;;;;12.40;51.40;;;12.56;54.53;99222.44;5074774;28;20019;-35
2024/01/01 03:15:16;;;;;;;;;;;12.40;51.40;;;12.52;54.38;99210.28;5074729;28;19928;-35
2024/01/01 03:17:45;;;;;;;;;;;12.40;51.50;;;12.51;54.11;99206.03;5082779;28;19932;-35
2024/01/01 03:20:13;;;;;;;;;;;12.30;51.40;;;12.49;55.23;99215.03;5093281;28;20011;-35
2024/01/01 03:22:42;;;;;;;;;;;12.30;51.30;;;12.48;54.63;99224.19;5092940;28;19924;-35
2024/01/01 03:25:10;;;;;;;;;;;12.30;51.40;;;12.46;54.15;99224.75;5093299;28;19929;-35
2024/01/01 03:27:38;;;;;;;;;;;12.30;51.40;;;12.46;54.79;99224.75;5079507;28;20445;-35
2024/01/01 03:30:08;;;;;;;;;;;12.30;51.30;;;12.44;54.74;99216.19;5074839;28;20406;-35
2024/01/01 03:32:40;;;;;;;;;;;12.30;51.30;;;12.45;54.44;99210.44;5074159;28;19931;-35
2024/01/01 03:35:08;;;;;;;;;;;12.30;51.90;;;12.46;53.97;99214.72;5074777;28;19978;-35
2024/01/01 03:37:36;;;;;;;;;;;12.30;51.30;;;12.47;53.56;99211.47;5073673;28;19924;-35
2024/01/01 03:40:06;;;;;;;;;;;12.30;51.30;;;12.47;53.83;99208.94;5074296;28;19962;-35
2024/01/01 03:42:34;;;;;;;;;;;12.30;51.20;;;12.49;54.86;99212.50;5073735;28;19928;-35
2024/01/01 03:45:02;;;;;;;;;;;12.30;51.20;;;12.49;53.86;99215.03;5074414;28;19924;-35
2024/01/01 03:47:32;;;;;;;;;;;12.30;51.20;;;12.53;54.08;99217.09;5074235;28;19967;-36
2024/01/01 03:50:01;;;;;;;;;;;12.40;51.30;;;12.55;54.69;99222.28;5066259;28;19924;-35
2024/01/01 03:52:29;;;;;;;;;;;12.40;51.30;;;12.57;54.22;99229.25;5074019;28;19931;-36
2024/01/01 03:54:57;;;;;;;;;;;12.40;51.30;;;12.60;54.71;99244.59;5073804;28;19970;-36
2024/01/01 03:57:25;;;;;;;;;;;12.40;51.30;;;12.63;54.75;99239.00;5073708;28;19978;-35
2024/01/01 03:59:53;;;;;;;;;;;12.40;51.20;;;12.64;54.19;99250.84;5072819;28;19924;-36
2024/01/01 04:02:21;;;;;;;;;;;12.50;51.30;;;12.64;54.56;99244.19;5074281;28;19932;-36
2024/01/01 04:04:50;;;;;;;;;;;12.50;51.30;;;12.65;54.73;99261.03;5073587;28;19979;-36
2024/01/01 04:07:19;;;;;;;;;;;12.50;51.30;;;12.67;53.71;99269.59;5073810;28;19924;-35
2024/01/01 04:09:47;;;;;;;;;;;12.50;51.40;;;12.70;54.49;99266.53;5072490;28;20388;-36
2024/01/01 04:12:15;;;;;;;;;;;12.50;51.30;;;12.71;53.73;99269.16;5073618;28;20379;-36
2024/01/01 04:14:43;;;;;;;;;;;12.50;51.30;;;12.73;53.89;99262.69;5073123;28;19931;-36
2024/01/01 04:17:11;;;;;;;;;;;12.50;51.40;;;12.76;54.67;99249.53;5073555;28;19924;-36
2024/01/01 04:19:39;;;;;;;;;;;12.50;51.50;;;12.78;53.99;99256.47;5072688;28;19964;-36
2024/01/01 04:22:07;;;;;;;;;;;12.50;51.50;;;12.78;54.35;99253.97;5073648;28;19947;-36
2024/01/01 04:24:36;;;;;;;;;;;12.60;51.60;;;12.80;53.64;99265.06;5073008;28;20004;-35
2024/01/01 04:27:04;;;;;;;;;;;12.60;51.50;;;12.83;54.64;99260.34;5073398;28;19934;-36
2024/01/01 04:29:32;;;;;;;;;;;12.60;51.50;;;12.82;53.87;99261.09;5072518;28;19972;-36
2024/01/01 04:32:00;;;;;;;;;;;12.60;51.50;;;12.82;54.18;99263.59;5072861;28;19971;-36
2024/01/01 04:34:28;;;;;;;;;;;12.60;51.40;;;12.81;54.65;99266.84;5073253;28;19924;-35
2024/01/01 04:36:56;;;;;;;;;;;12.60;51.40;;;12.79;54.38;99265.78;5072683;28;19942;-36
2024/01/01 04:39:24;;;;;;;;;;;12.60;51.40;;;12.76;54.14;99260.47;5073188;28;20337;-36
2024/01/01 04:41:53;;;;;;;;;;;12.60;51.50;;;12.74;54.61;99259.44;5073970;28;20023;-36
2024/01/01 04:44:21;;;;;;;;;;;12.60;51.50;;;12.74;54.87;99269.47;5097752;22;19924;-31
2024/01/01 04:46:49;;;;;;;;;;;12.60;51.50;;;12.73;54.43;99261.78;5092623;28;19931;-33
2024/01/01 04:49:17;;;;;;;;;;;12.60;51.60;;;12.71;55.04;99259.13;5092418;28;20333;-30
2024/01/01 04:51:45;;;;;;;;;;;12.60;51.60;;;12.66;53.80;99255.25;5093692;28;19946;-31
2024/01/01 04:54:13;;;;;;;;;;;12.60;51.60;;;12.64;54.30;99251.72;5093342;28;19931;-32
2024/01/01 04:56:41;;;;;;;;;;;12.50;51.50;;;12.59;54.63;99247.84;5092967;28;19928;-33
2024/01/01 04:59:10;;;;;;;;;;;12.50;51.60;;;12.60;54.81;99249.63;5092312;28;20429;-34
2024/01/01 05:01:38;;;;;;;;;;;12.50;51.70;;;12.57;54.43;99248.47;5092459;28;19924;-32
2024/01/01 05:04:06;;;;;;;;;;;12.40;51.60;;;12.55;54.96;99250.81;5092354;28;19924;-31
2024/01/01 05:06:34;;;;;;;;;;;12.40;51.70;;;12.50;54.31;99251.97;5092662;28;20406;-32
2024/01/01 05:09:02;;;;;;;;;;;12.40;51.80;;;12.16;54.23;99197.47;5083468;28;19923;-31
2024/01/01 05:11:30;;;;;;;;;;;12.40;51.80;;;12.49;54.46;99241.03;5092077;28;19924;-32
2024/01/01 05:13:58;;;;;;;;;;;12.30;51.70;;;12.48;54.68;99243.38;5092338;28;19932;-33
2024/01/01 05:16:27;;;;;;;;;;;12.30;51.70;;;12.45;54.91;99248.13;5092221;28;20020;-32
2024/01/01 05:18:55;;;;;;;;;;;12.30;51.70;;;12.43;54.50;99249.59;5091777;28;20038;-33
2024/01/01 05:21:23;;;;;;;;;;;12.30;51.80;;;12.42;55.27;99242.78;5092521;28;19924;-33
2024/01/01 05:23:51;;;;;;;;;;;12.30;51.80;;;12.41;54.71;99241.00;5092195;28;19985;-36
2024/01/01 05:26:19;;;;;;;;;;;12.30;51.80;;;12.41;54.79;99256.06;5092129;28;19932;-37
2024/01/01 05:28:47;;;;;;;;;;;12.30;51.70;;;12.40;54.74;99244.25;5091628;28;19924;-33
2024/01/01 05:31:19;;;;;;;;;;;12.30;51.80;;;12.40;54.47;99240.09;5091981;28;19939;-31
2024/01/01 05:33:48;;;;;;;;;;;12.30;51.80;;;12.44;54.55;99241.31;5091886;28;19970;-32
2024/01/01 05:36:16;;;;;;;;;;;12.30;51.80;;;12.45;54.58;99240.59;5092136;28;19930;-31
2024/01/01 05:38:45;;;;;;;;;;;12.30;51.80;;;12.45;54.90;99244.00;5091552;28;19967;-33
2024/01/01 05:41:13;;;;;;;;;;;12.30;51.80;;;12.44;54.67;99242.22;5092097;28;19931;-32
2024/01/01 05:43:41;;;;;;;;;;;12.30;51.70;;;12.49;54.24;99245.19;5091352;28;19924;-32
2024/01/01 05:46:09;;;;;;;;;;;12.30;51.60;;;12.51;54.29;99248.75;5092050;28;19975;-32
2024/01/01 05:48:37;;;;;;;;;;;12.30;51.60;;;12.55;55.03;99255.81;5091547;28;19931;-31
2024/01/01 05:51:10;;;;;;;;;;;12.40;51.80;;;12.59;54.37;99252.88;5084182;28;19969;-32
2024/01/01 05:53:38;;;;;;;;;;;12.40;51.70;;;12.60;54.58;99259.69;5091727;28;20284;-36
2024/01/01 05:56:06;;;;;;;;;;;12.40;51.70;;;12.60;53.75;99254.66;5091718;28;19947;-31
2024/01/01 05:58:34;;;;;;;;;;;12.40;51.60;;;12.62;54.96;99258.22;5091423;28;19946;-32
2024/01/01 06:01:03;;;;;;;;;;;12.40;51.70;;;12.66;54.15;99252.75;5091828;28;20014;-33
2024/01/01 06:03:31;;;;;;;;;;;12.40;51.60;;;12.65;54.06;99252.59;5091792;28;20335;-33
2024/01/01 06:05:59;;;;;;;;;;;12.50;51.60;;;12.66;54.60;99244.31;5091583;28;19934;-32
2024/01/01 06:08:29;;;;;;;;;;;12.50;51.60;;;12.63;54.59;99244.94;5091118;28;20015;-32
2024/01/01 06:10:56;;;;;;;;;;;12.50;51.70;;;12.70;54.59;99256.47;5083142;28;20519;-32
2024/01/01 06:13:25;;;;;;;;;;;12.50;51.70;;;12.69;54.52;99255.59;5091765;28;19924;-32
2024/01/01 06:15:52;;;;;;;;;;;12.50;51.70;;;12.72;54.55;99255.88;5091643;28;20030;-33
2024/01/01 06:18:21;;;;;;;;;;;12.50;51.70;;;12.71;54.43;99254.09;5091574;28;19949;-34
2024/01/01 06:20:50;;;;;;;;;;;12.50;51.70;;;12.72;54.24;99265.91;5091421;28;19970;-32
2024/01/01 06:23:18;;;;;;;;;;;12.50;51.70;;;12.72;54.63;99260.91;5094012;28;19931;-32
2024/01/01 06:25:48;;;;;;;;;;;12.50;51.70;;;12.73;54.27;99270.22;5095491;28;19931;-32
2024/01/01 06:28:16;;;;;;;;;;;12.50;51.70;;;12.76;54.51;99272.16;5095065;28;19924;-33
2024/01/01 06:30:44;;;;;;;;;;;12.50;51.60;;;12.76;54.24;99280.59;5095285;28;19974;-32
2024/01/01 06:33:12;;;;;;;;;;;12.60;51.60;;;12.75;54.33;99282.94;5095447;28;20345;-33
2024/01/01 06:35:40;;;;;;;;;;;12.60;51.60;;;12.74;54.39;99293.72;5095582;28;19970;-32
2024/01/01 06:38:08;;;;;;;;;;;12.60;51.60;;;12.71;54.15;99294.28;5095135;28;19924;-32
2024/01/01 06:40:36;;;;;;;;;;;12.60;51.60;;;12.70;54.99;99292.53;5095474;28;19955;-31
2024/01/01 06:43:05;;;;;;;;;;;12.60;51.60;;;12.68;54.92;99300.66;5094915;28;19924;-32
2024/01/01 06:45:33;;;;;;;;;;;12.60;51.60;;;12.63;54.87;99290.16;5095147;28;20457;-32
2024/01/01 06:48:01;;;;;;;;;;;12.50;51.50;;;12.64;54.71;99302.00;5094382;28;20022;-32
2024/01/01 06:50:30;;;;;;;;;;;12.50;51.50;;;12.62;54.77;99298.41;5095165;28;19956;-31
2024/01/01 06:52:59;;;;;;;;;;;12.50;51.60;;;12.60;54.22;99304.91;5094886;28;19930;-37
2024/01/01 06:55:29;;;;;;;;;;;12.50;51.70;;;12.60;53.92;99304.03;5095130;28;19928;-36
2024/01/01 06:57:58;;;;;;;;;;;12.50;51.70;;;12.57;54.38;99309.63;5094104;28;20026;-34
2024/01/01 07:00:28;;;;;;;;;;;12.40;51.70;;;12.55;54.65;99316.13;5094913;28;19930;-32
2024/01/01 07:03:00;;;;;;;;;;;12.40;51.70;;;12.52;54.27;99315.81;5094681;28;20298;-31
2024/01/01 07:05:29;;;;;;;;;;;12.40;51.80;;;12.50;55.18;99337.38;5094840;28;19924;-32
2024/01/01 07:07:58;;;;;;;;;;;12.40;51.80;;;12.46;55.23;99326.13;5094113;28;20388;-33
2024/01/01 07:10:26;;;;;;;;;;;12.30;51.70;;;12.47;54.93;99342.09;5094811;28;19928;-32
2024/01/01 07:12:54;;;;;;;;;;;12.30;51.70;;;12.43;55.07;99340.00;5094328;28;19970;-33
2024/01/01 07:15:22;;;;;;;;;;;12.30;51.80;;;12.43;55.08;99340.00;5094428;28;20345;-34
2024/01/01 07:17:51;;;;;;;;;;;12.30;51.80;;;12.42;54.52;99348.28;5093932;28;19924;-33
2024/01/01 07:20:20;;;;;;;;;;;12.30;51.80;;;12.41;54.61;99351.50;5094558;28;20426;-33
2024/01/01 07:22:48;;;;;;;;;;;12.30;51.80;;;12.40;54.83;99353.13;5094217;28;19924;-34
2024/01/01 07:25:16;;;;;;;;;;;12.30;51.80;;;12.38;55.34;99347.09;5094885;28;19931;-33
2024/01/01 07:27:44;;;;;;;;;;;12.30;52.50;;;12.42;55.30;99353.31;5093816;28;19924;-36
2024/01/01 07:30:12;;;;;;;;;;;12.30;51.90;;;12.42;55.65;99368.38;5094573;28;19924;-33
2024/01/01 07:32:40;;;;;;;;;;;12.30;51.80;;;12.43;54.96;99362.63;5094182;28;20019;-31
2024/01/01 07:35:10;;;;;;;;;;;12.30;51.80;;;12.36;55.13;99357.69;5094042;28;19963;-32
2024/01/01 07:37:38;;;;;;;;;;;12.30;51.80;;;12.38;55.43;99362.16;5093834;28;20401;-33
2024/01/01 07:40:07;;;;;;;;;;;12.30;51.80;;;12.44;54.53;99366.91;5094016;28;19984;-33
2024/01/01 07:42:35;;;;;;;;;;;12.30;51.80;;;12.49;54.36;99380.81;5087387;28;19924;-33
2024/01/01 07:45:04;;;;;;;;;;;12.30;51.70;;;12.50;55.29;99377.59;5096677;28;19986;-36
2024/01/01 07:47:33;;;;;;;;;;;12.30;51.70;;;12.54;53.88;99377.16;5096515;28;20399;-42
2024/01/01 07:50:02;;;;;;;;;;;12.40;51.70;;;12.57;54.29;99385.03;5095812;28;19931;-30
2024/01/01 07:52:32;;;;;;;;;;;12.40;52.30;;;12.60;54.57;99389.44;5095887;28;19993;-34
2024/01/01 07:55:00;;;;;;;;;;;12.40;51.70;;;12.61;54.04;99387.09;5095433;28;19928;-34
2024/01/01 07:57:29;;;;;;;;;;;12.40;51.60;;;12.63;54.67;99390.66;5095964;28;19974;-31
2024/01/01 07:59:58;;;;;;;;;;;12.40;51.60;;;12.64;54.09;99386.53;5095061;28;19927;-31
2024/01/01 08:02:27;;;;;;;;;;;12.40;51.50;;;12.66;54.70;99390.97;5095287;28;19992;-36
2024/01/01 08:04:55;;;;;;;;;;;12.50;51.60;;;12.67;53.73;99402.78;5095510;28;20395;-31
2024/01/01 08:07:24;;;;;;;;;;;12.50;51.50;;;12.69;54.17;99406.34;5095003;28;19935;-30
2024/01/01 08:09:54;;;;;;;;;;;12.50;51.50;;;12.74;54.55;99415.25;5095198;28;20018;-31
2024/01/01 08:12:22;;;;;;;;;;;12.50;51.60;;;12.74;54.14;99415.25;5094416;28;20342;-31
2024/01/01 08:14:51;;;;;;;;;;;12.50;51.60;;;12.74;53.92;99415.25;5096054;28;19943;-37
2024/01/01 08:17:19;;;;;;;;;;;12.50;51.50;;;12.79;53.73;99419.13;5095581;28;19931;-31
2024/01/01 08:19:47;;;;;;;;;;;12.50;51.50;;;12.79;54.44;99424.13;5093027;28;19924;-35
2024/01/01 08:22:15;;;;;;;;;;;12.50;51.40;;;12.79;53.40;99423.25;5093414;28;20361;-32
2024/01/01 08:24:43;;;;;;;;;;;12.60;51.40;;;12.81;54.35;99435.25;5093521;28;19935;-34
2024/01/01 08:27:13;;;;;;;;;;;12.60;51.40;;;12.81;54.55;99436.88;5085265;28;19931;-33
2024/01/01 08:29:41;;;;;;;;;;;12.60;51.40;;;12.80;54.37;99441.00;5092809;28;19986;-34
2024/01/01 08:32:09;;;;;;;;;;;12.60;51.30;;;12.77;54.26;99450.72;5092966;28;19961;-35
2024/01/01 08:34:37;;;;;;;;;;;12.60;51.30;;;12.77;54.81;99455.75;5092935;28;19977;-33
2024/01/01 08:37:05;;;;;;;;;;;12.60;51.40;;;12.76;54.41;99471.59;5084919;28;20395;-32
2024/01/01 08:39:35;;;;;;;;;;;12.60;51.40;;;12.73;54.62;99463.72;5092041;28;20497;-32
2024/01/01 08:42:04;;;;;;;;;;;12.60;51.50;;;12.70;54.92;99473.47;5093158;28;20027;-33
2024/01/01 08:44:33;;;;;;;;;;;12.60;51.50;;;12.65;54.33;99464.56;5092040;28;19975;-32
2024/01/01 08:47:01;;;;;;;;;;;12.50;51.50;;;12.63;54.37;99476.09;5093082;28;19967;-35
2024/01/01 08:49:29;;;;;;;;;;;12.50;51.50;;;12.61;54.91;99472.53;5092288;28;19927;-36
2024/01/01 08:51:57;;;;;;;;;;;12.50;51.60;;;12.59;55.14;99479.00;5092823;28;19927;-35
2024/01/01 08:54:25;;;;;;;;;;;12.50;51.70;;;12.57;54.68;99477.97;5092590;28;19928;-36
2024/01/01 08:56:53;;;;;;;;;;;12.40;51.80;;;12.56;55.24;99483.72;5092681;28;20019;-35
2024/01/01 08:59:21;;;;;;;;;;;12.40;51.90;;;12.55;54.47;99481.94;5092150;28;19931;-31
2024/01/01 09:01:50;;;;;;;;;;;12.40;51.90;;;12.53;54.68;99482.50;5092755;28;20295;-32
2024/01/01 09:04:18;;;;;;;;;;;12.40;52.00;;;12.50;55.69;99483.09;5092355;28;19924;-32
2024/01/01 09:06:46;;;;;;;;;;;12.30;51.90;;;12.43;55.68;99476.56;5092657;28;19924;-32
2024/01/01 09:09:14;;;;;;;;;;;12.30;52.00;;;12.47;54.93;99485.28;5091940;28;20018;-32
2024/01/01 09:11:43;;;;;;;;;;;12.30;52.00;;;12.46;55.17;99496.06;5092514;28;20010;-33
2024/01/01 09:14:11;;;;;;;;;;;12.30;52.00;;;12.44;55.14;99492.50;5083709;28;20310;-37
2024/01/01 09:16:39;;;;;;;;;;;12.30;52.10;;;12.43;54.36;99495.75;5092749;28;19954;-31
2024/01/01 09:19:08;;;;;;;;;;;12.30;52.10;;;12.41;54.79;99497.22;5091841;28;20390;-31
2024/01/01 09:21:37;;;;;;;;;;;12.20;52.00;;;12.43;55.02;99500.78;5092436;28;19925;-32
2024/01/01 09:24:05;;;;;;;;;;;12.30;52.10;;;12.43;54.90;99503.28;5091886;28;20522;-32
2024/01/01 09:26:34;;;;;;;;;;;12.30;52.20;;;12.43;55.81;99500.78;5092359;28;19970;-31
2024/01/01 09:29:02;;;;;;;;;;;12.30;52.20;;;12.41;54.78;99502.22;5091481;28;20399;-34
2024/01/01 09:31:31;;;;;;;;;;;12.30;52.20;;;12.46;55.73;99511.13;5092053;28;20007;-33
2024/01/01 09:34:00;;;;;;;;;;;12.30;52.20;;;12.49;54.95;99517.38;5091953;28;19924;-32
2024/01/01 09:36:30;;;;;;;;;;;12.30;52.10;;;12.52;55.17;99511.75;5092060;28;19931;-32
2024/01/01 09:38:58;;;;;;;;;;;12.30;52.10;;;12.55;55.51;99517.13;5091241;28;20396;-32
2024/01/01 09:41:26;;;;;;;;;;;12.30;52.10;;;12.56;54.90;99528.97;5092170;28;19985;-34
2024/01/01 09:43:55;;;;;;;;;;;12.40;52.10;;;12.60;55.18;99525.13;5091554;28;19932;-32
2024/01/01 09:46:25;;;;;;;;;;;12.40;52.10;;;12.64;55.26;99533.16;5092188;28;19930;-32
2024/01/01 09:48:52;;;;;;;;;;;12.40;52.10;;;12.64;54.97;99537.31;5091518;28;19952;-32
2024/01/01 09:51:20;;;;;;;;;;;12.40;52.00;;;12.66;55.06;99546.75;5084014;28;19924;-34
2024/01/01 09:53:50;;;;;;;;;;;12.40;52.00;;;12.67;55.00;99543.53;5091629;28;19924;-34
2024/01/01 09:56:18;;;;;;;;;;;12.40;51.90;;;12.69;54.78;99547.09;5092822;28;19924;-31
2024/01/01 09:58:46;;;;;;;;;;;12.50;52.00;;;12.70;54.57;99551.41;5095574;28;19924;-34
2024/01/01 10:01:16;;;;;;;;;;;12.50;52.00;;;12.70;55.16;99553.91;5095625;28;20023;-35
2024/01/01 10:03:44;;;;;;;;;;;12.50;52.00;;;12.74;54.59;99555.09;5096090;28;19932;-32
2024/01/01 10:06:13;;;;;;;;;;;12.50;52.00;;;12.70;55.10;99551.41;5095536;28;19969;-31
2024/01/01 10:08:41;;;;;;;;;;;12.50;52.00;;;12.72;54.34;99547.41;5095537;28;19953;-33
2024/01/01 10:11:18;;;;;;;;;;;12.50;52.00;;;12.72;55.40;99547.41;5096086;28;19931;-34
2024/01/01 10:13:47;;;;;;;;;;;12.50;51.90;;;12.73;54.96;99549.19;5095834;28;19967;-34
2024/01/01 10:16:24;;;;;;;;;;;12.50;51.90;;;12.73;54.47;99554.22;5095601;28;19936;-34
2024/01/01 10:18:54;;;;;;;;;;;12.50;51.80;;;12.69;54.47;99541.16;5095575;28;19924;-36
2024/01/01 10:21:26;;;;;;;;;;;12.60;51.90;;;12.74;54.24;99556.00;5088044;28;19924;-33
2024/01/01 10:23:54;;;;;;;;;;;12.60;51.80;;;12.74;55.13;99561.03;5095700;28;20046;-32
2024/01/01 10:26:30;;;;;;;;;;;12.60;51.80;;;12.74;54.73;99561.03;5088295;28;20015;-36
2024/01/01 10:28:58;;;;;;;;;;;12.60;51.80;;;12.73;55.11;99560.84;5095260;28;19968;-32
2024/01/01 10:31:26;;;;;;;;;;;12.60;51.80;;;12.71;55.16;99550.63;5095249;28;19927;-33
2024/01/01 10:33:54;;;;;;;;;;;12.60;51.80;;;12.70;54.94;99553.91;5095180;28;19928;-31
2024/01/01 10:36:22;;;;;;;;;;;12.60;51.80;;;12.70;55.05;99548.88;5095498;28;19924;-31
2024/01/01 10:38:50;;;;;;;;;;;12.50;51.80;;;12.69;54.63;99559.66;5095077;28;20014;-30
2024/01/01 10:41:18;;;;;;;;;;;12.50;51.80;;;12.66;54.80;99545.88;5095273;28;19931;-30
2024/01/01 10:43:48;;;;;;;;;;;12.50;51.80;;;12.67;54.82;99551.06;5094734;28;19928;-31
2024/01/01 10:46:16;;;;;;;;;;;12.50;51.90;;;12.66;54.41;99560.94;5095129;28;20064;-31
2024/01/01 10:48:44;;;;;;;;;;;12.50;51.90;;;12.65;55.08;99559.16;5091998;22;19975;-36
2024/01/01 10:51:22;;;;;;;;;;;12.50;51.90;;;12.64;55.26;99558.28;5074423;28;20387;-36
2024/01/01 10:54:02;;;;;;;;;;;12.50;52.00;;;12.59;55.42;99564.44;5075422;28;19925;-36
2024/01/01 10:56:35;;;;;;;;;;;12.50;52.00;;;12.63;54.90;99576.63;5067598;28;20430;-36
2024/01/01 10:59:08;;;;;;;;;;;12.50;52.00;;;12.53;54.86;99563.78;5074236;28;19924;-36
2024/01/01 11:01:36;;;;;;;;;;;12.50;52.10;;;12.61;55.07;99587.22;5075300;28;20027;-37
2024/01/01 11:04:04;;;;;;;;;;;12.40;52.00;;;12.60;55.65;99586.31;5074588;28;20018;-36
2024/01/01 11:06:33;;;;;;;;;;;12.40;52.00;;;12.61;55.38;99592.25;5074318;28;19971;-36
2024/01/01 11:09:32;;;;;;;;;;;12.40;52.10;;;12.59;55.67;99587.06;5072603;28;19935;-36
2024/01/01 11:12:02;;;;;;;;;;;12.40;52.10;;;12.58;54.65;99590.31;5071155;28;19925;-35
2024/01/01 11:14:31;;;;;;;;;;;12.40;52.10;;;12.59;54.55;99599.63;5074236;28;19928;-35
2024/01/01 11:17:02;;;;;;;;;;;12.40;52.10;;;12.57;54.76;99591.06;5074333;28;20011;-35
2024/01/01 11:19:38;;;;;;;;;;;12.40;52.10;;;12.55;54.84;99577.44;5073942;28;20401;-35
2024/01/01 11:22:30;;;;;;;;;;;12.40;52.10;;;12.55;54.96;99592.50;5074346;28;19999;-36
2024/01/01 11:25:00;;;;;;;;;;;12.40;52.10;;;12.54;55.38;99595.72;5074413;28;20445;-36